Hovedside
METAR-TAF:

METAR-TAF

Lufthavner :

Hagåtña, Guam, USA

Antonio B. Won Pat internasjonale lufthavn

breddegrad: 13-29N, lengdegrad: 144-48E, høyde over havet: 91 m

Gjeldene værobservasjon

Denne rapporten ble laget for 9 minutter siden, klokken 06:54 UTC
Vind 13 kt fra Øst
Temperatur 31°C
Luftfuktighet 79%
Trykk 1008 hPa
Sikt: 8.0 km
Få skyer i en høyde av 1700 ft
Spredte skyer i en høyde av 2600 ft
dis

METAR: PGUM 250654Z 09013KT 5SM HZ FEW017 SCT026 31/27 A2977 RMK AO2 SLP072 T03060272

Tid: 17:03 (07:03 UTC)

Varsel

Denne rapporten ble laget for 1 time og 36 minutter siden, klokken 05:27 UTC
Varsel gyldig fra 25. klokken 06 UTC til 26. klokken 12 UTC
Vind 14 kt fra Øst
Sikt: 10 km
Få skyer i en høyde av 1800 ft
Brutte skyer i en høyde av 2400 ft
Fra 25. klokken 0900 UTC
Vind 8 kt fra Øst
Sikt: 10 km
Få skyer i en høyde av 1800 ft
Spredte skyer i en høyde av 3000 ft
regnbyger i nærheten

TAF: PGUM 250527Z 2506/2612 09014KT P6SM FEW018 BKN024 FM250900 10008KT P6SM VCSH FEW018 SCT030

Værobservasjoner og værvarsel for over 4000 flyplasser (METAR- og TAF-rapporter).

Tilgjengelige stasjoner er representert av de røde og gule prikkene på kartet.

Hold musepekeren over prikken for å se navnet på stasjonen.

Klikk så for å se værobservasjoner og -varsler.

For å forandre kartet kan du klikke på den grønne knappen med svart kryss for å zoome inn, på den grønne knappen med strek for å zoome ut, eller på de grønne pilene for å se tilstøtende kart.


METAR-TAF: